Time;durP1;ratioP1;P1;durP2;ratioP2;P2;SDS_P1;SDS_P2;PMS_P1;PMS_P2;Temp;Humidity;BMP_temperature;BMP_pressure;BME280_temperature;BME280_humidity;BME280_pressure;Samples;Min_cycle;Max_cycle;Signal;HPM_P1;HPM_P2
2023/04/27 00:02:07;;;;;;;9.27;5.72;;;9.00;99.90;;;;;;6172136;28;20051;-76
2023/04/27 00:05:10;;;;;;;6.95;5.18;;;8.90;99.90;;;;;;6171565;28;20042;-76
2023/04/27 00:08:11;;;;;;;6.85;6.15;;;8.90;99.90;;;;;;6194250;28;20050;-76
2023/04/27 00:11:13;;;;;;;8.70;5.63;;;8.90;99.90;;;;;;6196062;28;20046;-76
2023/04/27 00:14:16;;;;;;;7.68;5.60;;;8.90;99.90;;;;;;6196180;28;20042;-76
2023/04/27 00:17:18;;;;;;;6.10;5.57;;;8.90;99.90;;;;;;6195826;28;20054;-76
2023/04/27 00:20:20;;;;;;;7.00;5.82;;;8.80;99.90;;;;;;6195306;28;20517;-76
2023/04/27 00:23:21;;;;;;;6.18;5.57;;;8.80;99.90;;;;;;6199093;28;20044;-76
2023/04/27 00:26:23;;;;;;;10.25;5.35;;;8.70;99.90;;;;;;6220910;28;20050;-77
2023/04/27 00:29:26;;;;;;;8.32;5.32;;;8.60;99.90;;;;;;6224415;28;20053;-77
2023/04/27 00:32:28;;;;;;;9.45;5.85;;;8.50;99.90;;;;;;6224465;28;20507;-76
2023/04/27 00:35:29;;;;;;;6.15;5.63;;;8.40;99.90;;;;;;6224211;28;20054;-76
2023/04/27 00:38:31;;;;;;;8.50;6.18;;;8.20;99.90;;;;;;6224222;28;20076;-78
2023/04/27 00:41:36;;;;;;;5.72;4.93;;;8.10;99.90;;;;;;6224315;28;20470;-77
2023/04/27 00:44:39;;;;;;;11.68;5.65;;;8.00;99.90;;;;;;6223237;28;20542;-76
2023/04/27 00:47:41;;;;;;;12.23;6.82;;;8.00;99.90;;;;;;6224038;28;20120;-76
2023/04/27 00:50:43;;;;;;;7.63;6.68;;;7.90;99.90;;;;;;6224009;28;20060;-76
2023/04/27 00:53:45;;;;;;;11.05;7.55;;;7.90;99.90;;;;;;6219766;28;20473;-76
2023/04/27 00:56:48;;;;;;;6.63;5.95;;;7.90;99.90;;;;;;6223995;28;20062;-76
2023/04/27 00:59:52;;;;;;;8.18;6.07;;;7.90;99.90;;;;;;6210696;28;20058;-76
2023/04/27 01:02:54;;;;;;;12.10;7.55;;;7.90;99.90;;;;;;6199456;28;20061;-76
2023/04/27 01:05:58;;;;;;;9.73;6.55;;;7.80;99.90;;;;;;6199615;28;20488;-76
2023/04/27 01:09:00;;;;;;;10.65;6.07;;;7.70;99.90;;;;;;6199130;28;20044;-76
2023/04/27 01:12:02;;;;;;;11.27;7.47;;;7.70;99.90;;;;;;6198868;28;20057;-76
2023/04/27 01:15:06;;;;;;;9.32;7.00;;;7.80;99.90;;;;;;6198997;28;20046;-76
2023/04/27 01:18:08;;;;;;;6.55;5.88;;;7.70;99.90;;;;;;6199807;28;20130;-76
2023/04/27 01:21:10;;;;;;;8.35;5.72;;;7.70;99.90;;;;;;6199092;28;20053;-77
2023/04/27 01:24:13;;;;;;;7.15;6.50;;;7.70;99.90;;;;;;6198957;28;20047;-77
2023/04/27 01:27:15;;;;;;;14.15;6.32;;;7.70;99.90;;;;;;6199248;28;20047;-76
2023/04/27 01:30:16;;;;;;;8.10;7.20;;;7.70;99.90;;;;;;6198767;28;20050;-76
2023/04/27 01:33:18;;;;;;;7.15;5.95;;;7.80;99.90;;;;;;6198689;28;20535;-76
2023/04/27 01:36:20;;;;;;;6.90;6.20;;;7.80;99.90;;;;;;6198730;28;20424;-76
2023/04/27 01:39:23;;;;;;;9.77;7.78;;;7.80;99.90;;;;;;6198711;28;20050;-76
2023/04/27 01:42:24;;;;;;;11.43;5.90;;;7.70;99.90;;;;;;6199012;28;20046;-76
2023/04/27 01:45:26;;;;;;;6.78;6.13;;;7.70;99.90;;;;;;6198053;28;20046;-77
2023/04/27 01:48:28;;;;;;;8.50;6.20;;;7.70;99.90;;;;;;6198510;28;20053;-76
2023/04/27 01:51:29;;;;;;;8.60;6.35;;;7.70;99.90;;;;;;6209113;28;20069;-76
2023/04/27 01:54:32;;;;;;;6.70;6.05;;;7.70;99.90;;;;;;6222785;28;20057;-76
2023/04/27 01:57:34;;;;;;;6.93;6.22;;;7.80;99.90;;;;;;6223243;28;20046;-76
2023/04/27 02:00:36;;;;;;;7.70;5.85;;;7.80;99.90;;;;;;6222631;28;20061;-76
2023/04/27 02:03:37;;;;;;;6.20;5.60;;;7.70;99.90;;;;;;6222058;28;20053;-76
2023/04/27 02:06:40;;;;;;;11.02;7.20;;;7.70;99.90;;;;;;6222961;28;20046;-76
2023/04/27 02:09:43;;;;;;;8.00;6.65;;;7.70;99.90;;;;;;6222942;28;20076;-77
2023/04/27 02:12:45;;;;;;;9.77;7.20;;;7.70;99.90;;;;;;6222178;28;20057;-77
2023/04/27 02:15:47;;;;;;;8.10;6.63;;;7.70;99.90;;;;;;6221718;28;20048;-76
2023/04/27 02:18:48;;;;;;;9.95;7.15;;;7.80;99.90;;;;;;6222073;28;20049;-76
2023/04/27 02:21:51;;;;;;;10.10;8.65;;;7.80;99.90;;;;;;6222423;28;20062;-76
2023/04/27 02:24:54;;;;;;;6.93;6.22;;;7.90;99.90;;;;;;6205896;28;20051;-76
2023/04/27 02:27:56;;;;;;;8.48;6.10;;;7.90;99.90;;;;;;6197846;28;20047;-77
2023/04/27 02:30:57;;;;;;;6.82;5.82;;;7.90;99.90;;;;;;6197490;28;20042;-76
2023/04/27 02:33:59;;;;;;;10.70;6.65;;;7.90;99.90;;;;;;6197958;28;20058;-77
2023/04/27 02:37:01;;;;;;;10.75;6.88;;;7.90;99.90;;;;;;6197634;28;20073;-77
2023/04/27 02:40:06;;;;;;;8.40;6.65;;;7.90;99.90;;;;;;6196757;28;20049;-76
2023/04/27 02:43:08;;;;;;;10.52;6.40;;;7.90;99.90;;;;;;6197141;28;20122;-77
2023/04/27 02:46:09;;;;;;;13.13;6.82;;;7.90;99.90;;;;;;6197612;28;20046;-77
2023/04/27 02:49:11;;;;;;;7.35;6.43;;;7.90;99.90;;;;;;6196737;28;20046;-77
2023/04/27 02:52:13;;;;;;;8.60;6.38;;;8.00;99.90;;;;;;6215881;28;20050;-76
2023/04/27 02:55:16;;;;;;;10.18;7.10;;;8.00;99.90;;;;;;6221115;28;20464;-77
2023/04/27 02:58:18;;;;;;;8.43;6.10;;;8.00;99.90;;;;;;6221728;28;20492;-77
2023/04/27 03:01:20;;;;;;;13.82;7.07;;;8.00;99.90;;;;;;6220552;28;20060;-76
2023/04/27 03:04:22;;;;;;;13.02;7.43;;;8.00;99.90;;;;;;6217890;28;20041;-77
2023/04/27 03:07:23;;;;;;;9.90;7.07;;;8.00;99.90;;;;;;6196708;28;20464;-78
2023/04/27 03:10:26;;;;;;;7.38;6.57;;;8.00;99.90;;;;;;6197904;28;20057;-76
2023/04/27 03:13:28;;;;;;;8.20;6.80;;;8.00;99.90;;;;;;6196612;28;20050;-76
2023/04/27 03:16:32;;;;;;;9.70;7.55;;;8.00;99.90;;;;;;6196559;28;20046;-76
2023/04/27 03:19:33;;;;;;;13.25;7.90;;;8.00;99.90;;;;;;6196468;28;20042;-76
2023/04/27 03:22:35;;;;;;;10.13;7.43;;;8.00;99.90;;;;;;6196617;28;20051;-76
2023/04/27 03:25:38;;;;;;;10.18;7.80;;;8.00;99.90;;;;;;6196803;28;20046;-76
2023/04/27 03:28:41;;;;;;;10.25;8.05;;;8.00;99.90;;;;;;6196521;28;20543;-76
2023/04/27 03:31:43;;;;;;;9.15;7.30;;;8.00;99.90;;;;;;6196654;28;20042;-76
2023/04/27 03:34:45;;;;;;;9.73;8.52;;;8.10;99.90;;;;;;6196663;28;20058;-76
2023/04/27 03:37:46;;;;;;;10.00;7.68;;;8.10;99.90;;;;;;6196398;28;20770;-76
2023/04/27 03:40:50;;;;;;;9.73;6.93;;;8.10;99.90;;;;;;6196620;28;20046;-77
2023/04/27 03:43:52;;;;;;;8.90;7.32;;;8.10;99.90;;;;;;6198240;28;20053;-80
2023/04/27 03:46:54;;;;;;;6.35;5.47;;;8.10;99.90;;;;;;6200493;28;20520;-79
2023/04/27 03:49:55;;;;;;;8.55;6.38;;;8.10;99.90;;;;;;6203567;28;20057;-79
2023/04/27 03:52:57;;;;;;;9.23;8.32;;;8.00;99.90;;;;;;6200375;28;20563;-79
2023/04/27 03:56:02;;;;;;;7.95;6.32;;;8.00;99.90;;;;;;6201478;28;20042;-79
2023/04/27 03:59:04;;;;;;;8.63;6.70;;;8.00;99.90;;;;;;6201547;28;20382;-79
2023/04/27 04:02:07;;;;;;;8.50;6.65;;;8.00;99.90;;;;;;6204435;28;20054;-79
2023/04/27 04:05:09;;;;;;;11.50;6.55;;;8.00;99.90;;;;;;6205562;28;20042;-79
2023/04/27 04:08:11;;;;;;;10.63;7.03;;;8.00;99.90;;;;;;6206160;28;20051;-79
2023/04/27 04:11:14;;;;;;;8.85;7.43;;;8.00;99.90;;;;;;6206013;28;20047;-79
2023/04/27 04:14:16;;;;;;;7.82;6.68;;;7.90;99.90;;;;;;6206252;28;20189;-79
2023/04/27 04:17:17;;;;;;;12.90;7.97;;;7.90;99.90;;;;;;6205913;28;20054;-79
2023/04/27 04:20:19;;;;;;;7.32;6.63;;;7.90;99.90;;;;;;6206514;28;20053;-79
2023/04/27 04:23:21;;;;;;;7.72;7.00;;;7.90;99.90;;;;;;6209681;28;20042;-79
2023/04/27 04:26:23;;;;;;;8.05;7.28;;;7.90;99.90;;;;;;6228851;28;20041;-79
2023/04/27 04:29:26;;;;;;;13.13;7.85;;;7.90;99.90;;;;;;6227334;28;20439;-78
2023/04/27 04:32:28;;;;;;;8.00;7.20;;;7.90;99.90;;;;;;6210722;28;20049;-78
2023/04/27 04:35:31;;;;;;;9.13;7.30;;;7.90;99.90;;;;;;6200773;28;20125;-78
2023/04/27 04:38:33;;;;;;;7.70;7.07;;;7.90;99.90;;;;;;6201815;28;20050;-77
2023/04/27 04:41:36;;;;;;;9.35;6.78;;;7.90;99.90;;;;;;6201717;28;20405;-78
2023/04/27 04:44:38;;;;;;;10.63;7.90;;;7.90;99.90;;;;;;6201312;28;20057;-78
2023/04/27 04:47:40;;;;;;;7.78;7.03;;;8.00;99.90;;;;;;6202253;28;20065;-78
2023/04/27 04:50:42;;;;;;;12.63;7.47;;;8.00;99.90;;;;;;6203826;28;20050;-79
2023/04/27 04:53:43;;;;;;;9.57;7.40;;;8.00;99.90;;;;;;6204771;28;20061;-79
2023/04/27 04:56:46;;;;;;;9.43;7.55;;;8.00;99.90;;;;;;6211670;28;20517;-79
2023/04/27 04:59:48;;;;;;;10.95;9.07;;;8.10;99.90;;;;;;6229414;28;20046;-78
2023/04/27 05:02:50;;;;;;;10.00;7.97;;;8.10;99.90;;;;;;6229538;28;20129;-79
2023/04/27 05:05:52;;;;;;;17.40;7.40;;;8.20;99.90;;;;;;6230658;28;20188;-79
2023/04/27 05:08:53;;;;;;;13.65;9.05;;;8.30;99.90;;;;;;6231121;28;20042;-79
2023/04/27 05:11:56;;;;;;;13.52;7.22;;;8.40;99.90;;;;;;6224118;28;20193;-79
2023/04/27 05:14:58;;;;;;;14.38;8.10;;;8.60;99.90;;;;;;6205535;28;20042;-79
2023/04/27 05:18:00;;;;;;;12.02;7.00;;;8.60;99.90;;;;;;6205614;28;20046;-79
2023/04/27 05:21:02;;;;;;;8.13;6.03;;;8.80;99.90;;;;;;6210024;28;20245;-79
2023/04/27 05:24:03;;;;;;;11.30;6.75;;;8.90;99.90;;;;;;6216119;28;20052;-79
2023/04/27 05:27:06;;;;;;;8.25;5.50;;;9.00;99.90;;;;;;6211427;28;20096;-79
2023/04/27 05:30:10;;;;;;;11.00;5.95;;;9.10;99.90;;;;;;6209202;28;20054;-79
2023/04/27 05:33:11;;;;;;;8.77;5.20;;;9.30;99.90;;;;;;6209122;28;20057;-79
2023/04/27 05:36:13;;;;;;;12.13;6.13;;;9.40;99.90;;;;;;6208406;28;20519;-79
2023/04/27 05:39:15;;;;;;;8.65;5.05;;;9.50;99.90;;;;;;6209066;28;20432;-79
2023/04/27 05:42:18;;;;;;;7.18;5.35;;;9.60;99.90;;;;;;6236589;23;20050;-80
2023/04/27 05:45:20;;;;;;;6.13;5.22;;;9.70;99.90;;;;;;6224685;28;20050;-81
2023/04/27 05:48:22;;;;;;;10.60;5.50;;;9.80;99.90;;;;;;6226128;28;20041;-81
2023/04/27 05:51:24;;;;;;;13.70;5.63;;;10.00;99.90;;;;;;6226892;28;20042;-81
2023/04/27 05:54:26;;;;;;;8.57;5.13;;;10.10;99.90;;;;;;6226111;28;20058;-81
2023/04/27 05:57:30;;;;;;;7.88;4.97;;;10.30;99.90;;;;;;6206001;28;20551;-81
2023/04/27 06:00:31;;;;;;;7.50;5.15;;;10.40;99.90;;;;;;6202505;28;20066;-81
2023/04/27 06:03:33;;;;;;;6.18;4.95;;;10.60;99.90;;;;;;6201995;28;20058;-81
2023/04/27 06:06:35;;;;;;;8.73;5.60;;;10.70;99.90;;;;;;6202939;28;20420;-81
2023/04/27 06:09:37;;;;;;;7.30;5.38;;;10.80;99.90;;;;;;6204841;28;20058;-81
2023/04/27 06:12:40;;;;;;;10.02;5.00;;;10.90;99.90;;;;;;6203902;28;20052;-81
2023/04/27 06:15:42;;;;;;;14.00;6.22;;;11.00;99.90;;;;;;6202950;28;20535;-82
2023/04/27 06:18:44;;;;;;;10.07;5.43;;;11.10;99.90;;;;;;6203562;28;20523;-82
2023/04/27 06:21:45;;;;;;;11.23;5.40;;;11.10;99.90;;;;;;6203096;28;20420;-82
2023/04/27 06:24:47;;;;;;;6.68;5.15;;;11.20;99.90;;;;;;6202385;28;20424;-81
2023/04/27 06:27:50;;;;;;;6.45;5.30;;;11.20;99.90;;;;;;6202852;28;20050;-81
2023/04/27 06:30:53;;;;;;;7.70;5.60;;;11.20;99.90;;;;;;6213601;28;20058;-82
2023/04/27 06:33:55;;;;;;;6.68;5.00;;;11.30;99.90;;;;;;6204614;28;20054;-81
2023/04/27 06:36:56;;;;;;;7.32;4.55;;;11.50;99.90;;;;;;6202990;28;20053;-81
2023/04/27 06:39:58;;;;;;;7.70;4.55;;;11.70;99.90;;;;;;6201935;28;20043;-81
2023/04/27 06:43:01;;;;;;;12.85;7.57;;;12.00;99.90;;;;;;6203264;28;20047;-81
2023/04/27 06:46:25;;;;;;;;;;;;;;;;;;;;;
2023/04/27 06:49:27;;;;;;;8.43;4.82;;;12.40;99.90;;;;;;6172881;28;20054;-81
2023/04/27 06:52:31;;;;;;;9.05;5.70;;;12.60;99.90;;;;;;6179547;28;20043;-81
2023/04/27 06:55:33;;;;;;;7.10;4.78;;;12.70;99.90;;;;;;6182574;28;20058;-82
2023/04/27 06:58:36;;;;;;;12.73;5.55;;;12.80;99.90;;;;;;6177228;28;20051;-81
2023/04/27 07:01:38;;;;;;;11.18;5.57;;;12.90;99.90;;;;;;6177325;28;20062;-81
2023/04/27 07:04:40;;;;;;;8.13;5.13;;;13.00;99.90;;;;;;6176228;28;20520;-82
2023/04/27 07:07:42;;;;;;;8.80;5.45;;;13.20;99.90;;;;;;6175511;28;20043;-81
2023/04/27 07:10:43;;;;;;;9.13;5.20;;;13.40;99.90;;;;;;6175207;28;20066;-81
2023/04/27 07:13:47;;;;;;;6.47;4.72;;;13.50;99.50;;;;;;6176634;28;20058;-81
2023/04/27 07:16:48;;;;;;;6.57;5.88;;;13.70;99.10;;;;;;6176661;28;20043;-81
2023/04/27 07:19:50;;;;;;;7.65;4.65;;;13.90;98.80;;;;;;6176284;28;20058;-81
2023/04/27 07:22:52;;;;;;;5.38;4.68;;;14.20;98.30;;;;;;6176662;28;20060;-82
2023/04/27 07:25:53;;;;;;;6.72;5.15;;;14.40;97.70;;;;;;6176990;28;20050;-82
2023/04/27 07:28:56;;;;;;;9.00;5.20;;;14.80;97.30;;;;;;6176668;28;20044;-82
2023/04/27 07:31:58;;;;;;;5.32;4.28;;;15.00;96.90;;;;;;6176714;28;20129;-81
2023/04/27 07:35:00;;;;;;;10.48;4.63;;;15.40;96.20;;;;;;6178448;28;20043;-81
2023/04/27 07:38:02;;;;;;;12.35;4.93;;;15.60;95.30;;;;;;6189610;28;20061;-81
2023/04/27 07:41:06;;;;;;;10.60;6.60;;;16.10;95.10;;;;;;6181212;28;20054;-80
2023/04/27 07:44:09;;;;;;;7.10;4.30;;;16.90;94.40;;;;;;6181214;28;20082;-79
2023/04/27 07:47:12;;;;;;;6.53;4.30;;;18.10;93.00;;;;;;6181229;28;20042;-80
2023/04/27 07:50:15;;;;;;;7.03;4.15;;;18.70;91.60;;;;;;6182202;28;20460;-80
2023/04/27 07:53:17;;;;;;;6.20;4.75;;;19.10;90.20;;;;;;6180554;28;20588;-80
2023/04/27 07:56:18;;;;;;;5.03;4.40;;;19.80;87.80;;;;;;6180305;28;20117;-80
2023/04/27 07:59:21;;;;;;;7.80;4.28;;;20.50;84.70;;;;;;6179687;28;20043;-80
2023/04/27 08:02:23;;;;;;;13.52;4.32;;;21.10;81.10;;;;;;6186612;28;20053;-80
2023/04/27 08:05:25;;;;;;;5.40;3.40;;;21.70;78.40;;;;;;6204131;28;20047;-80
2023/04/27 08:08:26;;;;;;;4.80;3.72;;;22.10;75.10;;;;;;6204281;28;20046;-79
2023/04/27 08:11:28;;;;;;;4.93;4.10;;;22.60;73.00;;;;;;6204688;28;20045;-80
2023/04/27 08:14:33;;;;;;;8.07;3.35;;;23.20;70.30;;;;;;6205671;28;20058;-80
2023/04/27 08:17:36;;;;;;;6.50;3.10;;;23.50;67.30;;;;;;6205170;28;20042;-80
2023/04/27 08:20:37;;;;;;;9.63;4.22;;;23.70;66.00;;;;;;6204564;28;20057;-80
2023/04/27 08:23:39;;;;;;;6.68;3.40;;;23.70;64.20;;;;;;6204590;28;20038;-80
2023/04/27 08:26:41;;;;;;;3.97;3.67;;;24.00;62.90;;;;;;6204628;28;20047;-80
2023/04/27 08:29:47;;;;;;;5.72;4.25;;;24.30;61.10;;;;;;6205921;28;20085;-80
2023/04/27 08:32:49;;;;;;;12.02;4.88;;;24.50;59.00;;;;;;6201620;28;20058;-80
2023/04/27 08:35:53;;;;;;;4.45;2.70;;;24.50;58.30;;;;;;6220858;28;20504;-81
2023/04/27 08:38:55;;;;;;;8.20;3.20;;;24.80;57.40;;;;;;6214361;28;20400;-79
2023/04/27 08:41:56;;;;;;;4.32;3.92;;;24.90;56.40;;;;;;6213290;28;20050;-81
2023/04/27 08:44:59;;;;;;;11.15;4.05;;;25.10;55.10;;;;;;6207407;28;20046;-80
2023/04/27 08:48:01;;;;;;;6.00;3.22;;;25.10;54.00;;;;;;6204419;28;20049;-80
2023/04/27 08:51:08;;;;;;;7.78;3.72;;;25.30;53.10;;;;;;6203922;28;20042;-80
2023/04/27 08:54:10;;;;;;;15.00;4.32;;;25.40;52.50;;;;;;6205835;28;20061;-80
2023/04/27 08:57:13;;;;;;;9.38;4.72;;;25.30;52.00;;;;;;6205277;28;20046;-80
2023/04/27 09:00:18;;;;;;;9.27;4.80;;;25.10;51.70;;;;;;6205691;28;20069;-79
2023/04/27 09:03:22;;;;;;;12.05;5.00;;;25.00;51.40;;;;;;6193238;28;20047;-80
2023/04/27 09:06:31;;;;;;;11.90;4.72;;;25.10;51.10;;;;;;6181199;28;20061;-80
2023/04/27 09:09:33;;;;;;;6.25;4.75;;;25.20;50.90;;;;;;6179895;28;20058;-80
2023/04/27 09:12:35;;;;;;;10.38;6.18;;;25.50;50.40;;;;;;6181081;28;20103;-80
2023/04/27 09:15:44;;;;;;;7.43;4.78;;;25.50;49.80;;;;;;6179876;28;20043;-80
2023/04/27 09:18:45;;;;;;;10.85;4.60;;;25.70;49.20;;;;;;6180115;28;20058;-80
2023/04/27 09:21:48;;;;;;;12.07;5.20;;;26.00;49.30;;;;;;6179581;28;20413;-79
2023/04/27 09:24:53;;;;;;;9.30;4.88;;;26.20;48.40;;;;;;6193803;28;20054;-79
2023/04/27 09:27:55;;;;;;;4.93;4.20;;;26.10;48.00;;;;;;6204025;28;20069;-80
2023/04/27 09:30:59;;;;;;;9.05;5.40;;;26.00;47.80;;;;;;6203500;28;20052;-80
2023/04/27 09:34:01;;;;;;;6.75;4.57;;;25.70;47.70;;;;;;6191596;28;20532;-80
2023/04/27 09:37:03;;;;;;;7.40;4.95;;;25.60;48.10;;;;;;6179129;28;20053;-81
2023/04/27 09:40:06;;;;;;;8.02;5.15;;;25.70;48.20;;;;;;6179862;28;20497;-80
2023/04/27 09:43:07;;;;;;;6.57;5.07;;;25.60;47.80;;;;;;6179542;28;20043;-80
2023/04/27 09:46:12;;;;;;;8.40;5.78;;;25.50;47.60;;;;;;6179026;28;20053;-80
2023/04/27 09:49:15;;;;;;;9.32;5.75;;;25.50;48.00;;;;;;6179577;28;20459;-80
2023/04/27 09:52:17;;;;;;;7.95;5.35;;;25.70;47.60;;;;;;6191437;28;20057;-81
2023/04/27 09:55:24;;;;;;;8.13;5.65;;;25.70;47.00;;;;;;6182165;28;20054;-80
2023/04/27 09:58:49;;;;;;;9.38;5.38;;;25.60;46.70;;;;;;6179539;28;20051;-80
2023/04/27 10:01:59;;;;;;;12.77;5.00;;;25.40;46.00;;;;;;6179596;28;20078;-80
2023/04/27 10:05:37;;;;;;;7.03;4.32;;;25.10;46.00;;;;;;6192586;28;20065;-80
2023/04/27 10:08:39;;;;;;;12.90;4.55;;;25.00;46.20;;;;;;6202541;28;20054;-79
2023/04/27 10:11:42;;;;;;;10.90;4.28;;;24.80;46.60;;;;;;6203221;28;20412;-80
2023/04/27 10:14:55;;;;;;;9.40;4.13;;;24.60;46.60;;;;;;6203785;28;20393;-80
2023/04/27 10:18:04;;;;;;;11.30;4.15;;;24.50;47.00;;;;;;6203829;28;20046;-79
2023/04/27 10:21:12;;;;;;;3.50;3.20;;;24.80;46.70;;;;;;6202676;28;20054;-79
2023/04/27 10:24:14;;;;;;;6.55;3.58;;;25.10;45.70;;;;;;6202944;28;20054;-79
2023/04/27 10:27:18;;;;;;;5.65;2.85;;;25.20;45.10;;;;;;6202762;28;20042;-79
2023/04/27 10:30:22;;;;;;;6.28;3.67;;;25.20;45.30;;;;;;6202656;28;20057;-79
2023/04/27 10:33:25;;;;;;;9.15;3.78;;;25.50;45.00;;;;;;6207078;28;20386;-79
2023/04/27 10:36:35;;;;;;;7.88;2.50;;;25.40;44.50;;;;;;6177094;28;20394;-79
2023/04/27 10:39:40;;;;;;;5.68;3.08;;;25.30;44.50;;;;;;6189009;28;20039;-80
2023/04/27 10:42:42;;;;;;;4.10;3.10;;;25.30;44.70;;;;;;6202228;28;20054;-79
2023/04/27 10:45:44;;;;;;;3.28;2.83;;;25.20;44.60;;;;;;6197682;28;20050;-79
2023/04/27 10:48:48;;;;;;;10.48;3.10;;;25.20;44.30;;;;;;6202063;28;20042;-80
2023/04/27 10:51:51;;;;;;;4.20;2.55;;;25.00;44.40;;;;;;6201585;28;20061;-79
2023/04/27 10:54:53;;;;;;;7.20;2.92;;;25.10;44.30;;;;;;6201581;28;20069;-81
2023/04/27 10:57:55;;;;;;;5.03;2.90;;;25.00;44.10;;;;;;6201581;28;20057;-80
2023/04/27 11:00:57;;;;;;;2.80;2.10;;;25.00;44.20;;;;;;6206630;28;20054;-79
2023/04/27 11:04:02;;;;;;;7.32;2.60;;;25.10;44.30;;;;;;6195858;28;20050;-80
2023/04/27 11:07:04;;;;;;;6.63;3.05;;;25.10;44.50;;;;;;6181231;28;20051;-80
2023/04/27 11:10:08;;;;;;;5.50;3.42;;;25.20;44.20;;;;;;6179294;28;20055;-80
2023/04/27 11:13:11;;;;;;;4.10;3.30;;;25.20;43.80;;;;;;6178587;28;20136;-80
2023/04/27 11:16:13;;;;;;;11.32;2.90;;;25.30;43.60;;;;;;6178210;28;20053;-80
2023/04/27 11:19:16;;;;;;;6.20;3.00;;;25.20;44.00;;;;;;6177479;28;20046;-79
2023/04/27 11:22:18;;;;;;;6.90;3.00;;;25.30;44.00;;;;;;6178084;28;20054;-79
2023/04/27 11:25:27;;;;;;;3.70;3.03;;;25.60;44.00;;;;;;6177123;28;20046;-80
2023/04/27 11:28:29;;;;;;;4.35;3.60;;;25.70;43.40;;;;;;6176255;28;20043;-80
2023/04/27 11:31:39;;;;;;;8.02;3.78;;;25.60;43.50;;;;;;6177132;28;20482;-78
2023/04/27 11:34:49;;;;;;;4.13;3.45;;;25.40;43.00;;;;;;6183597;28;20053;-80
2023/04/27 11:37:58;;;;;;;6.55;3.55;;;25.60;43.90;;;;;;6177758;28;20046;-78
2023/04/27 11:41:01;;;;;;;3.95;2.40;;;25.90;43.80;;;;;;6212306;23;20050;-80
2023/04/27 11:44:07;;;;;;;4.75;3.20;;;26.30;43.20;;;;;;6232288;28;20056;-80
2023/04/27 11:47:15;;;;;;;9.63;3.20;;;26.50;42.70;;;;;;6230095;28;20496;-80
2023/04/27 11:50:18;;;;;;;3.15;2.10;;;26.60;42.40;;;;;;6231139;28;20259;-81
2023/04/27 11:53:29;;;;;;;3.08;2.33;;;26.70;42.30;;;;;;6232118;28;20049;-81
2023/04/27 11:56:36;;;;;;;4.93;3.20;;;26.90;41.90;;;;;;6231512;28;20046;-81
2023/04/27 11:59:37;;;;;;;5.27;2.57;;;26.80;41.70;;;;;;6231854;28;20053;-81
2023/04/27 12:02:39;;;;;;;9.40;3.08;;;26.60;41.90;;;;;;6229616;28;20053;-81
2023/04/27 12:05:50;;;;;;;5.10;3.20;;;26.60;41.80;;;;;;6221161;28;20129;-81
2023/04/27 12:08:51;;;;;;;6.13;2.67;;;26.40;41.10;;;;;;6208136;28;20500;-79
2023/04/27 12:11:53;;;;;;;6.30;2.30;;;26.20;41.90;;;;;;6207001;28;20085;-81
2023/04/27 12:14:55;;;;;;;4.38;2.40;;;26.40;42.20;;;;;;6207547;28;20050;-81
2023/04/27 12:17:57;;;;;;;4.55;2.65;;;26.60;41.90;;;;;;6208175;28;20050;-80
2023/04/27 12:21:00;;;;;;;3.13;2.58;;;26.60;41.80;;;;;;6207644;28;20230;-80
2023/04/27 12:24:02;;;;;;;7.47;3.20;;;26.50;41.50;;;;;;6212365;28;20057;-80
2023/04/27 12:27:04;;;;;;;3.20;2.72;;;26.50;41.30;;;;;;6212227;28;20042;-80
2023/04/27 12:30:06;;;;;;;5.00;2.78;;;26.60;41.90;;;;;;6212849;28;20054;-81
2023/04/27 12:33:09;;;;;;;5.38;2.65;;;26.80;41.70;;;;;;6214507;28;20045;-80
2023/04/27 12:36:12;;;;;;;3.15;2.20;;;27.10;41.50;;;;;;6214357;28;20053;-80
2023/04/27 12:39:16;;;;;;;3.35;2.97;;;27.30;41.10;;;;;;6211683;28;20050;-80
2023/04/27 12:42:22;;;;;;;3.42;2.15;;;27.40;40.80;;;;;;6211747;28;20531;-81
2023/04/27 12:45:24;;;;;;;3.13;2.40;;;27.50;40.30;;;;;;6212064;28;20061;-81
2023/04/27 12:48:26;;;;;;;6.50;3.05;;;27.30;40.50;;;;;;6211132;28;20077;-81
2023/04/27 12:51:29;;;;;;;8.20;4.30;;;27.30;40.60;;;;;;6212522;28;20050;-80
2023/04/27 12:54:30;;;;;;;3.65;2.40;;;27.30;40.80;;;;;;6228839;28;20050;-81
2023/04/27 12:57:32;;;;;;;8.48;2.00;;;27.20;40.80;;;;;;6234430;28;20531;-81
2023/04/27 13:00:34;;;;;;;6.75;1.85;;;27.30;40.80;;;;;;6234904;28;20050;-80
2023/04/27 13:03:36;;;;;;;4.25;2.63;;;27.20;40.80;;;;;;6221367;28;20048;-82
2023/04/27 13:06:39;;;;;;;3.97;2.58;;;27.00;40.50;;;;;;6212875;28;20058;-82
2023/04/27 13:09:41;;;;;;;2.17;1.98;;;26.50;40.40;;;;;;6221995;28;20056;-83
2023/04/27 13:12:42;;;;;;;7.40;2.67;;;26.10;41.00;;;;;;6237774;28;20084;-82
2023/04/27 13:15:45;;;;;;;5.50;2.65;;;26.10;41.20;;;;;;6237733;28;20042;-82
2023/04/27 13:18:48;;;;;;;5.47;2.33;;;26.20;41.20;;;;;;6236780;28;20120;-83
2023/04/27 13:21:53;;;;;;;5.85;2.28;;;26.00;41.10;;;;;;6237842;28;20054;-82
2023/04/27 13:24:55;;;;;;;6.57;2.10;;;25.90;41.40;;;;;;6237755;28;20049;-81
2023/04/27 13:27:56;;;;;;;9.77;3.13;;;25.80;41.60;;;;;;6237547;28;20042;-81
2023/04/27 13:30:58;;;;;;;3.97;1.75;;;25.70;41.40;;;;;;6237252;28;20049;-81
2023/04/27 13:34:03;;;;;;;7.50;2.80;;;25.20;41.20;;;;;;6235503;28;20050;-83
2023/04/27 13:37:06;;;;;;;5.97;2.40;;;25.00;42.00;;;;;;6237629;28;20062;-82
2023/04/27 13:40:10;;;;;;;2.47;1.42;;;25.10;42.40;;;;;;6238120;28;20459;-82
2023/04/27 13:43:11;;;;;;;2.80;2.08;;;25.40;42.20;;;;;;6237595;28;20046;-84
2023/04/27 13:46:14;;;;;;;3.13;2.83;;;25.60;41.90;;;;;;6240158;28;20053;-82
2023/04/27 13:49:15;;;;;;;5.55;5.03;;;25.80;42.00;;;;;;6240543;28;20504;-82
2023/04/27 13:52:18;;;;;;;5.80;2.78;;;25.80;42.00;;;;;;6238961;28;20049;-83
2023/04/27 13:55:20;;;;;;;4.07;2.60;;;25.80;41.70;;;;;;6238187;28;20046;-81
2023/04/27 13:58:22;;;;;;;2.08;1.85;;;26.10;41.90;;;;;;6238475;28;20053;-84
2023/04/27 14:01:25;;;;;;;2.55;1.10;;;26.30;41.80;;;;;;6239188;28;20050;-81
2023/04/27 14:04:26;;;;;;;2.88;1.70;;;26.40;41.30;;;;;;6218976;28;20050;-82
2023/04/27 14:07:33;;;;;;;3.25;1.77;;;26.50;41.00;;;;;;6214485;28;20050;-82
2023/04/27 14:10:36;;;;;;;2.22;1.25;;;26.40;40.80;;;;;;6218808;28;20452;-80
2023/04/27 14:13:37;;;;;;;12.40;11.38;;;26.30;41.00;;;;;;6215950;28;20050;-84
2023/04/27 14:16:39;;;;;;;6.50;3.78;;;26.50;41.00;;;;;;6214443;28;20050;-83
2023/04/27 14:19:41;;;;;;;1.92;1.45;;;26.70;40.80;;;;;;6214447;28;20111;-83
2023/04/27 14:22:45;;;;;;;1.38;1.27;;;26.80;40.40;;;;;;6213460;28;20441;-81
2023/04/27 14:25:46;;;;;;;1.95;1.10;;;26.90;40.20;;;;;;6213473;28;20050;-82
2023/04/27 14:28:48;;;;;;;2.00;0.90;;;26.90;40.10;;;;;;6221384;28;20048;-83
2023/04/27 14:31:50;;;;;;;1.27;1.00;;;27.00;40.10;;;;;;6219695;28;20057;-84
2023/04/27 14:34:51;;;;;;;2.35;0.75;;;27.10;40.10;;;;;;6214227;28;20137;-83
2023/04/27 14:37:55;;;;;;;3.75;1.88;;;26.80;39.60;;;;;;6214433;28;20050;-83
2023/04/27 14:40:57;;;;;;;2.03;1.58;;;26.70;40.20;;;;;;6213745;28;20420;-82
2023/04/27 14:43:59;;;;;;;3.80;1.52;;;26.70;39.90;;;;;;6214583;28;20050;-82
2023/04/27 14:47:01;;;;;;;3.88;1.60;;;26.50;39.80;;;;;;6211673;28;20501;-82
2023/04/27 14:50:03;;;;;;;2.47;1.10;;;26.40;40.10;;;;;;6211323;28;20054;-83
2023/04/27 14:53:06;;;;;;;2.30;0.95;;;26.20;40.10;;;;;;6216282;28;20073;-83
2023/04/27 14:56:08;;;;;;;3.05;1.35;;;26.00;40.50;;;;;;6212525;28;20065;-83
2023/04/27 14:59:09;;;;;;;5.47;1.33;;;26.00;40.40;;;;;;6212477;28;20057;-82
2023/04/27 15:02:11;;;;;;;2.92;1.83;;;26.00;40.80;;;;;;6208590;28;20064;-81
2023/04/27 15:05:13;;;;;;;0.90;0.80;;;26.20;40.60;;;;;;6211075;28;20510;-80
2023/04/27 15:08:16;;;;;;;4.22;1.30;;;26.30;40.40;;;;;;6207928;28;20539;-79
2023/04/27 15:11:17;;;;;;;2.00;1.23;;;25.90;40.70;;;;;;6206393;28;20053;-80
2023/04/27 15:14:19;;;;;;;1.88;0.95;;;25.70;41.30;;;;;;6216702;28;20061;-79
2023/04/27 15:17:21;;;;;;;3.35;1.48;;;25.60;41.60;;;;;;6234974;28;20050;-82
2023/04/27 15:20:23;;;;;;;1.73;1.10;;;25.30;41.50;;;;;;6238976;28;20060;-82
2023/04/27 15:23:27;;;;;;;1.33;1.10;;;24.80;41.90;;;;;;6235922;28;20501;-83
2023/04/27 15:26:28;;;;;;;2.40;1.63;;;24.60;42.40;;;;;;6207484;28;20058;-82
2023/04/27 15:29:30;;;;;;;2.40;1.10;;;24.70;42.30;;;;;;6206627;28;20591;-81
2023/04/27 15:32:32;;;;;;;2.28;1.20;;;25.00;42.30;;;;;;6208455;28;20650;-81
2023/04/27 15:35:36;;;;;;;1.65;0.80;;;25.20;42.10;;;;;;6216313;28;20052;-81
2023/04/27 15:38:39;;;;;;;5.38;1.33;;;25.50;42.00;;;;;;6216239;28;20042;-81
2023/04/27 15:41:41;;;;;;;1.60;1.08;;;25.50;41.80;;;;;;6215046;28;20053;-81
2023/04/27 15:44:43;;;;;;;3.78;1.40;;;25.50;42.00;;;;;;6211980;28;20111;-81
2023/04/27 15:47:45;;;;;;;2.53;1.40;;;25.70;42.30;;;;;;6210239;28;21273;-81
2023/04/27 15:50:47;;;;;;;3.28;1.60;;;25.80;42.20;;;;;;6211768;28;20050;-81
2023/04/27 15:53:50;;;;;;;3.85;1.45;;;25.60;42.10;;;;;;6210838;28;20042;-81
2023/04/27 15:56:51;;;;;;;1.55;1.00;;;25.40;41.70;;;;;;6208982;28;20046;-81